Keewatin, MN

9:44 PM CST on February 09, 2016 (GMT -0600)
Calumet, MN | | Change Station
CLOSE
Current Station
Personal Weather Station
Location: Bovey, MN
Elevation: 1381 ft
Nearby Weather Stations

Elev 1381 ft 47.32 °N, 93.28 °W | Updated 30 seconds ago

Clear
Clear
-2.4 °F
Feels Like -2 °F
N
0.0
Wind Variable Wind from SSW

Today
High -- | Low -- °F
--% Chance of Precip.
Yesterday
High -- | Low -- °F
Precip. -- in
Pressure 30.22 in
Visibility 10.0 miles
Clouds Clear
Windchill -2 °F
Dew Point -7 °F
Humidity 81%
Rainfall 0.00 in
Snow Depth Not available.
7:27 AM 5:25 PM
Waxing Crescent, 3% visible
METAR KHIB 100253Z AUTO 32007KT 10SM CLR M19/M23 A3009 RMK AO2 SLP234 T11941228 51001
Pressure 30.22 in
Visibility 10.0 miles
Clouds Clear
Windchill -2 °F
Dew Point -7 °F
Humidity 81%
Rainfall 0.00 in
Snow Depth Not available.
7:27 AM 5:25 PM
Waxing Crescent, 3% visible
METAR KHIB 100253Z AUTO 32007KT 10SM CLR M19/M23 A3009 RMK AO2 SLP234 T11941228 51001

10-Day Weather Forecast

Almanac

Astronomy

Feb. 09, 2016 Rise Set
Actual Time
Civil Twilight
Nautical Twilight
Astronomical Twilight
Moon
Length of Visible Light
Length of Day
Tomorrow will be .
, % of the Moon is Illuminated

Today's Extremes

State Highs State Lows

Community

WunderPhotos

Upload Photos

1,891,792 photos uploaded!

WunderBlog® & News

Nearby

Air Quality

  Air Quality AQ Index Pollutant
Not available.

Snow Depth

Station Depth Elevation

Earthquake Activity

City Distance Mag. Time & Date
Minimum magnitude displayed is 2.5.

Coastal Water Temperatures

Place Temperature

Stations

Nearby Weather Stations

Station Location Temp. Windchill Dew Point Humidity Wind Precip. Elev Updated Type
                   

Watches & Warnings

There are currently no watches in effect.